sensor_id;sensor_type;location;lat;lon;timestamp;P1;durP1;ratioP1;P2;durP2;ratioP2
51179;SDS011;37243;49.814;8.652;2023-02-02T00:01:43;3.03;;;2.67;;
51179;SDS011;37243;49.814;8.652;2023-02-02T00:04:14;3.30;;;2.35;;
51179;SDS011;37243;49.814;8.652;2023-02-02T00:06:44;3.05;;;2.53;;
51179;SDS011;37243;49.814;8.652;2023-02-02T00:09:15;2.83;;;2.28;;
51179;SDS011;37243;49.814;8.652;2023-02-02T00:11:46;2.65;;;2.45;;
51179;SDS011;37243;49.814;8.652;2023-02-02T00:14:15;2.63;;;2.42;;
51179;SDS011;37243;49.814;8.652;2023-02-02T00:16:44;2.90;;;2.20;;
51179;SDS011;37243;49.814;8.652;2023-02-02T00:19:14;2.65;;;2.25;;
51179;SDS011;37243;49.814;8.652;2023-02-02T00:21:44;2.80;;;2.60;;
51179;SDS011;37243;49.814;8.652;2023-02-02T00:24:15;3.55;;;2.25;;
51179;SDS011;37243;49.814;8.652;2023-02-02T00:26:45;2.30;;;2.08;;
51179;SDS011;37243;49.814;8.652;2023-02-02T00:29:15;3.63;;;2.10;;
51179;SDS011;37243;49.814;8.652;2023-02-02T00:31:45;2.65;;;2.35;;
51179;SDS011;37243;49.814;8.652;2023-02-02T00:34:13;2.70;;;2.45;;
51179;SDS011;37243;49.814;8.652;2023-02-02T00:36:43;2.30;;;2.10;;
51179;SDS011;37243;49.814;8.652;2023-02-02T00:39:13;2.80;;;2.10;;
51179;SDS011;37243;49.814;8.652;2023-02-02T00:41:51;3.05;;;2.00;;
51179;SDS011;37243;49.814;8.652;2023-02-02T00:44:20;2.97;;;2.50;;
51179;SDS011;37243;49.814;8.652;2023-02-02T00:47:01;2.45;;;2.25;;
51179;SDS011;37243;49.814;8.652;2023-02-02T00:49:30;2.63;;;2.05;;
51179;SDS011;37243;49.814;8.652;2023-02-02T00:51:58;2.58;;;2.10;;
51179;SDS011;37243;49.814;8.652;2023-02-02T00:54:29;2.53;;;2.33;;
51179;SDS011;37243;49.814;8.652;2023-02-02T00:56:57;3.22;;;2.17;;
51179;SDS011;37243;49.814;8.652;2023-02-02T00:59:26;3.78;;;2.53;;
51179;SDS011;37243;49.814;8.652;2023-02-02T01:01:54;2.22;;;2.03;;
51179;SDS011;37243;49.814;8.652;2023-02-02T01:04:22;2.15;;;2.05;;
51179;SDS011;37243;49.814;8.652;2023-02-02T01:06:51;2.60;;;2.40;;
51179;SDS011;37243;49.814;8.652;2023-02-02T01:09:19;2.25;;;2.15;;
51179;SDS011;37243;49.814;8.652;2023-02-02T01:11:50;2.90;;;2.08;;
51179;SDS011;37243;49.814;8.652;2023-02-02T01:14:19;3.10;;;2.42;;
51179;SDS011;37243;49.814;8.652;2023-02-02T01:16:47;3.25;;;2.20;;
51179;SDS011;37243;49.814;8.652;2023-02-02T01:19:15;2.55;;;2.25;;
51179;SDS011;37243;49.814;8.652;2023-02-02T01:21:43;2.03;;;1.83;;
51179;SDS011;37243;49.814;8.652;2023-02-02T01:24:12;3.33;;;2.33;;
51179;SDS011;37243;49.814;8.652;2023-02-02T01:26:40;2.97;;;2.13;;
51179;SDS011;37243;49.814;8.652;2023-02-02T01:29:11;2.85;;;2.50;;
51179;SDS011;37243;49.814;8.652;2023-02-02T01:31:39;2.88;;;2.30;;
51179;SDS011;37243;49.814;8.652;2023-02-02T01:34:08;2.25;;;2.05;;
51179;SDS011;37243;49.814;8.652;2023-02-02T01:36:36;2.35;;;2.15;;
51179;SDS011;37243;49.814;8.652;2023-02-02T01:39:04;2.30;;;2.10;;
51179;SDS011;37243;49.814;8.652;2023-02-02T01:41:33;2.25;;;2.03;;
51179;SDS011;37243;49.814;8.652;2023-02-02T01:44:02;2.13;;;1.92;;
51179;SDS011;37243;49.814;8.652;2023-02-02T01:46:34;2.13;;;2.00;;
51179;SDS011;37243;49.814;8.652;2023-02-02T01:49:05;2.28;;;2.00;;
51179;SDS011;37243;49.814;8.652;2023-02-02T01:51:39;2.30;;;2.13;;
51179;SDS011;37243;49.814;8.652;2023-02-02T01:54:10;2.00;;;1.70;;
51179;SDS011;37243;49.814;8.652;2023-02-02T01:56:44;2.38;;;2.10;;
51179;SDS011;37243;49.814;8.652;2023-02-02T01:59:17;2.10;;;2.00;;
51179;SDS011;37243;49.814;8.652;2023-02-02T02:01:48;2.20;;;2.00;;
51179;SDS011;37243;49.814;8.652;2023-02-02T02:04:19;2.30;;;2.10;;
51179;SDS011;37243;49.814;8.652;2023-02-02T02:06:49;2.38;;;2.08;;
51179;SDS011;37243;49.814;8.652;2023-02-02T02:09:18;2.30;;;2.10;;
51179;SDS011;37243;49.814;8.652;2023-02-02T02:11:46;2.25;;;2.05;;
51179;SDS011;37243;49.814;8.652;2023-02-02T02:14:14;2.33;;;2.13;;
51179;SDS011;37243;49.814;8.652;2023-02-02T02:17:06;2.05;;;1.95;;
51179;SDS011;37243;49.814;8.652;2023-02-02T02:23:09;2.33;;;2.00;;
51179;SDS011;37243;49.814;8.652;2023-02-02T02:26:16;2.22;;;2.00;;
51179;SDS011;37243;49.814;8.652;2023-02-02T02:29:12;2.17;;;1.98;;
51179;SDS011;37243;49.814;8.652;2023-02-02T02:32:08;2.30;;;2.10;;
51179;SDS011;37243;49.814;8.652;2023-02-02T02:34:52;2.10;;;1.90;;
51179;SDS011;37243;49.814;8.652;2023-02-02T02:37:26;2.30;;;2.10;;
51179;SDS011;37243;49.814;8.652;2023-02-02T02:40:01;2.10;;;1.88;;
51179;SDS011;37243;49.814;8.652;2023-02-02T02:42:35;2.13;;;1.92;;
51179;SDS011;37243;49.814;8.652;2023-02-02T02:45:07;2.13;;;1.85;;
51179;SDS011;37243;49.814;8.652;2023-02-02T02:47:41;2.47;;;2.05;;
51179;SDS011;37243;49.814;8.652;2023-02-02T02:50:10;1.95;;;1.85;;
51179;SDS011;37243;49.814;8.652;2023-02-02T02:52:39;1.88;;;1.77;;
51179;SDS011;37243;49.814;8.652;2023-02-02T02:55:08;2.50;;;2.00;;
51179;SDS011;37243;49.814;8.652;2023-02-02T03:00:31;2.90;;;2.22;;
51179;SDS011;37243;49.814;8.652;2023-02-02T03:03:13;1.90;;;1.70;;
51179;SDS011;37243;49.814;8.652;2023-02-02T03:05:51;1.80;;;1.70;;
51179;SDS011;37243;49.814;8.652;2023-02-02T03:08:28;2.65;;;2.10;;
51179;SDS011;37243;49.814;8.652;2023-02-02T03:11:00;1.80;;;1.70;;
51179;SDS011;37243;49.814;8.652;2023-02-02T03:13:30;1.77;;;1.50;;
51179;SDS011;37243;49.814;8.652;2023-02-02T03:15:59;1.90;;;1.80;;
51179;SDS011;37243;49.814;8.652;2023-02-02T03:18:30;1.42;;;1.33;;
51179;SDS011;37243;49.814;8.652;2023-02-02T03:20:59;2.42;;;2.22;;
51179;SDS011;37243;49.814;8.652;2023-02-02T03:23:28;2.05;;;1.70;;
51179;SDS011;37243;49.814;8.652;2023-02-02T03:25:56;2.33;;;1.83;;
51179;SDS011;37243;49.814;8.652;2023-02-02T03:28:24;2.08;;;1.88;;
51179;SDS011;37243;49.814;8.652;2023-02-02T03:30:54;2.05;;;1.90;;
51179;SDS011;37243;49.814;8.652;2023-02-02T03:33:24;2.00;;;1.80;;
51179;SDS011;37243;49.814;8.652;2023-02-02T03:35:55;2.03;;;1.83;;
51179;SDS011;37243;49.814;8.652;2023-02-02T03:38:23;1.65;;;1.55;;
51179;SDS011;37243;49.814;8.652;2023-02-02T03:40:51;1.60;;;1.50;;
51179;SDS011;37243;49.814;8.652;2023-02-02T03:43:20;2.00;;;1.90;;
51179;SDS011;37243;49.814;8.652;2023-02-02T03:45:53;2.35;;;2.00;;
51179;SDS011;37243;49.814;8.652;2023-02-02T03:48:22;1.75;;;1.65;;
51179;SDS011;37243;49.814;8.652;2023-02-02T03:50:51;1.95;;;1.73;;
51179;SDS011;37243;49.814;8.652;2023-02-02T03:53:22;1.92;;;1.83;;
51179;SDS011;37243;49.814;8.652;2023-02-02T03:55:51;2.13;;;1.60;;
51179;SDS011;37243;49.814;8.652;2023-02-02T03:58:19;1.83;;;1.67;;
51179;SDS011;37243;49.814;8.652;2023-02-02T04:00:48;2.45;;;1.80;;
51179;SDS011;37243;49.814;8.652;2023-02-02T04:03:16;2.08;;;1.83;;
51179;SDS011;37243;49.814;8.652;2023-02-02T04:05:47;1.80;;;1.70;;
51179;SDS011;37243;49.814;8.652;2023-02-02T04:08:16;1.90;;;1.63;;
51179;SDS011;37243;49.814;8.652;2023-02-02T04:10:47;1.83;;;1.73;;
51179;SDS011;37243;49.814;8.652;2023-02-02T04:13:15;1.73;;;1.63;;
51179;SDS011;37243;49.814;8.652;2023-02-02T04:15:43;1.92;;;1.83;;
51179;SDS011;37243;49.814;8.652;2023-02-02T04:18:12;1.77;;;1.60;;
51179;SDS011;37243;49.814;8.652;2023-02-02T04:20:40;1.80;;;1.70;;
51179;SDS011;37243;49.814;8.652;2023-02-02T04:23:08;1.55;;;1.45;;
51179;SDS011;37243;49.814;8.652;2023-02-02T04:25:36;1.70;;;1.60;;
51179;SDS011;37243;49.814;8.652;2023-02-02T04:28:07;1.73;;;1.63;;
51179;SDS011;37243;49.814;8.652;2023-02-02T04:30:35;1.70;;;1.60;;
51179;SDS011;37243;49.814;8.652;2023-02-02T04:33:04;1.65;;;1.55;;
51179;SDS011;37243;49.814;8.652;2023-02-02T04:35:32;1.63;;;1.52;;
51179;SDS011;37243;49.814;8.652;2023-02-02T04:38:00;1.48;;;1.33;;
51179;SDS011;37243;49.814;8.652;2023-02-02T04:40:28;2.05;;;1.85;;
51179;SDS011;37243;49.814;8.652;2023-02-02T04:42:57;1.70;;;1.40;;
51179;SDS011;37243;49.814;8.652;2023-02-02T04:45:27;1.73;;;1.63;;
51179;SDS011;37243;49.814;8.652;2023-02-02T04:47:56;2.22;;;1.70;;
51179;SDS011;37243;49.814;8.652;2023-02-02T04:50:24;1.63;;;1.52;;
51179;SDS011;37243;49.814;8.652;2023-02-02T04:52:52;2.63;;;1.90;;
51179;SDS011;37243;49.814;8.652;2023-02-02T04:55:21;1.50;;;1.40;;
51179;SDS011;37243;49.814;8.652;2023-02-02T04:57:49;1.85;;;1.73;;
51179;SDS011;37243;49.814;8.652;2023-02-02T05:00:17;1.40;;;1.30;;
51179;SDS011;37243;49.814;8.652;2023-02-02T05:02:49;1.67;;;1.58;;
51179;SDS011;37243;49.814;8.652;2023-02-02T05:05:17;1.27;;;1.20;;
51179;SDS011;37243;49.814;8.652;2023-02-02T05:07:46;1.50;;;1.40;;
51179;SDS011;37243;49.814;8.652;2023-02-02T05:10:14;1.67;;;1.58;;
51179;SDS011;37243;49.814;8.652;2023-02-02T05:12:43;1.70;;;1.60;;
51179;SDS011;37243;49.814;8.652;2023-02-02T05:15:11;1.50;;;1.40;;
51179;SDS011;37243;49.814;8.652;2023-02-02T05:17:39;1.50;;;1.40;;
51179;SDS011;37243;49.814;8.652;2023-02-02T05:20:11;1.92;;;1.73;;
51179;SDS011;37243;49.814;8.652;2023-02-02T05:22:39;1.50;;;1.40;;
51179;SDS011;37243;49.814;8.652;2023-02-02T05:25:08;1.65;;;1.30;;
51179;SDS011;37243;49.814;8.652;2023-02-02T05:27:37;1.60;;;1.30;;
51179;SDS011;37243;49.814;8.652;2023-02-02T05:30:06;1.92;;;1.70;;
51179;SDS011;37243;49.814;8.652;2023-02-02T05:32:36;1.67;;;1.58;;
51179;SDS011;37243;49.814;8.652;2023-02-02T05:35:04;1.63;;;1.52;;
51179;SDS011;37243;49.814;8.652;2023-02-02T05:37:36;1.77;;;1.67;;
51179;SDS011;37243;49.814;8.652;2023-02-02T05:40:05;1.65;;;1.55;;
51179;SDS011;37243;49.814;8.652;2023-02-02T05:42:34;1.58;;;1.48;;
51179;SDS011;37243;49.814;8.652;2023-02-02T05:45:02;1.42;;;1.33;;
51179;SDS011;37243;49.814;8.652;2023-02-02T05:47:31;1.60;;;1.50;;
51179;SDS011;37243;49.814;8.652;2023-02-02T05:49:59;1.50;;;1.40;;
51179;SDS011;37243;49.814;8.652;2023-02-02T05:52:28;1.40;;;1.30;;
51179;SDS011;37243;49.814;8.652;2023-02-02T05:55:04;1.40;;;1.30;;
51179;SDS011;37243;49.814;8.652;2023-02-02T05:57:33;1.30;;;1.20;;
51179;SDS011;37243;49.814;8.652;2023-02-02T06:00:02;1.45;;;1.35;;
51179;SDS011;37243;49.814;8.652;2023-02-02T06:02:32;1.60;;;1.50;;
51179;SDS011;37243;49.814;8.652;2023-02-02T06:05:00;1.70;;;1.60;;
51179;SDS011;37243;49.814;8.652;2023-02-02T06:07:28;1.50;;;1.40;;
51179;SDS011;37243;49.814;8.652;2023-02-02T06:09:56;1.42;;;1.33;;
51179;SDS011;37243;49.814;8.652;2023-02-02T06:12:27;1.30;;;1.20;;
51179;SDS011;37243;49.814;8.652;2023-02-02T06:14:55;1.35;;;1.25;;
51179;SDS011;37243;49.814;8.652;2023-02-02T06:17:24;1.27;;;1.20;;
51179;SDS011;37243;49.814;8.652;2023-02-02T06:19:53;1.10;;;1.10;;
51179;SDS011;37243;49.814;8.652;2023-02-02T06:22:21;1.48;;;1.30;;
51179;SDS011;37243;49.814;8.652;2023-02-02T06:24:49;1.48;;;1.20;;
51179;SDS011;37243;49.814;8.652;2023-02-02T06:27:19;1.50;;;1.40;;
51179;SDS011;37243;49.814;8.652;2023-02-02T06:29:49;1.30;;;1.20;;
51179;SDS011;37243;49.814;8.652;2023-02-02T06:32:18;1.60;;;1.50;;
51179;SDS011;37243;49.814;8.652;2023-02-02T06:34:46;1.75;;;1.30;;
51179;SDS011;37243;49.814;8.652;2023-02-02T06:37:14;1.45;;;1.35;;
51179;SDS011;37243;49.814;8.652;2023-02-02T06:39:43;1.98;;;1.38;;
51179;SDS011;37243;49.814;8.652;2023-02-02T06:42:11;1.50;;;1.40;;
51179;SDS011;37243;49.814;8.652;2023-02-02T06:44:39;1.00;;;1.00;;
51179;SDS011;37243;49.814;8.652;2023-02-02T06:47:10;1.40;;;1.30;;
51179;SDS011;37243;49.814;8.652;2023-02-02T06:49:38;1.20;;;1.20;;
51179;SDS011;37243;49.814;8.652;2023-02-02T06:52:09;1.17;;;1.17;;
51179;SDS011;37243;49.814;8.652;2023-02-02T06:54:37;1.75;;;1.65;;
51179;SDS011;37243;49.814;8.652;2023-02-02T06:57:06;1.50;;;1.40;;
51179;SDS011;37243;49.814;8.652;2023-02-02T06:59:34;1.52;;;1.40;;
51179;SDS011;37243;49.814;8.652;2023-02-02T07:02:02;1.65;;;1.55;;
51179;SDS011;37243;49.814;8.652;2023-02-02T07:04:33;1.63;;;1.50;;
51179;SDS011;37243;49.814;8.652;2023-02-02T07:07:01;2.58;;;1.70;;
51179;SDS011;37243;49.814;8.652;2023-02-02T07:09:30;1.65;;;1.55;;
51179;SDS011;37243;49.814;8.652;2023-02-02T07:11:59;1.83;;;1.35;;
51179;SDS011;37243;49.814;8.652;2023-02-02T07:14:27;2.10;;;1.30;;
51179;SDS011;37243;49.814;8.652;2023-02-02T07:16:55;5.43;;;1.50;;
51179;SDS011;37243;49.814;8.652;2023-02-02T07:19:24;2.15;;;1.20;;
51179;SDS011;37243;49.814;8.652;2023-02-02T07:21:54;2.55;;;1.70;;
51179;SDS011;37243;49.814;8.652;2023-02-02T07:24:23;1.50;;;1.40;;
51179;SDS011;37243;49.814;8.652;2023-02-02T07:26:51;2.33;;;1.90;;
51179;SDS011;37243;49.814;8.652;2023-02-02T07:29:21;4.15;;;2.00;;
51179;SDS011;37243;49.814;8.652;2023-02-02T07:31:50;3.13;;;1.90;;
51179;SDS011;37243;49.814;8.652;2023-02-02T07:34:18;4.20;;;1.88;;
51179;SDS011;37243;49.814;8.652;2023-02-02T07:36:46;3.55;;;1.90;;
51179;SDS011;37243;49.814;8.652;2023-02-02T07:39:17;2.42;;;2.00;;
51179;SDS011;37243;49.814;8.652;2023-02-02T07:41:45;3.17;;;1.70;;
51179;SDS011;37243;49.814;8.652;2023-02-02T07:44:14;2.60;;;1.75;;
51179;SDS011;37243;49.814;8.652;2023-02-02T07:46:43;2.10;;;1.70;;
51179;SDS011;37243;49.814;8.652;2023-02-02T07:49:13;3.58;;;1.90;;
51179;SDS011;37243;49.814;8.652;2023-02-02T07:51:43;2.50;;;1.80;;
51179;SDS011;37243;49.814;8.652;2023-02-02T07:54:13;2.95;;;1.70;;
51179;SDS011;37243;49.814;8.652;2023-02-02T07:56:44;2.63;;;1.80;;
51179;SDS011;37243;49.814;8.652;2023-02-02T07:59:12;3.08;;;1.80;;
51179;SDS011;37243;49.814;8.652;2023-02-02T08:01:41;5.53;;;1.65;;
51179;SDS011;37243;49.814;8.652;2023-02-02T08:04:09;1.45;;;1.35;;
51179;SDS011;37243;49.814;8.652;2023-02-02T08:06:38;3.35;;;1.55;;
51179;SDS011;37243;49.814;8.652;2023-02-02T08:09:07;2.55;;;1.40;;
51179;SDS011;37243;49.814;8.652;2023-02-02T08:11:36;2.70;;;1.52;;
51179;SDS011;37243;49.814;8.652;2023-02-02T08:14:10;2.60;;;1.58;;
51179;SDS011;37243;49.814;8.652;2023-02-02T08:16:39;1.98;;;1.60;;
51179;SDS011;37243;49.814;8.652;2023-02-02T08:19:08;3.58;;;2.10;;
51179;SDS011;37243;49.814;8.652;2023-02-02T08:21:37;3.28;;;1.55;;
51179;SDS011;37243;49.814;8.652;2023-02-02T08:24:05;3.10;;;1.58;;
51179;SDS011;37243;49.814;8.652;2023-02-02T08:26:34;3.17;;;1.70;;
51179;SDS011;37243;49.814;8.652;2023-02-02T08:29:03;2.28;;;1.63;;
51179;SDS011;37243;49.814;8.652;2023-02-02T08:31:36;6.65;;;1.92;;
51179;SDS011;37243;49.814;8.652;2023-02-02T08:34:06;3.92;;;1.90;;
51179;SDS011;37243;49.814;8.652;2023-02-02T08:36:35;2.47;;;1.75;;
51179;SDS011;37243;49.814;8.652;2023-02-02T08:39:04;5.65;;;1.40;;
51179;SDS011;37243;49.814;8.652;2023-02-02T08:41:34;2.67;;;1.50;;
51179;SDS011;37243;49.814;8.652;2023-02-02T08:44:04;3.00;;;1.40;;
51179;SDS011;37243;49.814;8.652;2023-02-02T08:46:33;3.25;;;1.80;;
51179;SDS011;37243;49.814;8.652;2023-02-02T08:49:03;2.60;;;1.45;;
51179;SDS011;37243;49.814;8.652;2023-02-02T08:51:32;2.95;;;1.88;;
51179;SDS011;37243;49.814;8.652;2023-02-02T08:54:00;3.15;;;1.60;;
51179;SDS011;37243;49.814;8.652;2023-02-02T08:56:28;4.97;;;1.88;;
51179;SDS011;37243;49.814;8.652;2023-02-02T08:58:57;3.33;;;1.50;;
51179;SDS011;37243;49.814;8.652;2023-02-02T09:01:27;1.70;;;1.50;;
51179;SDS011;37243;49.814;8.652;2023-02-02T09:04:00;2.22;;;1.52;;
51179;SDS011;37243;49.814;8.652;2023-02-02T09:06:30;2.13;;;1.30;;
51179;SDS011;37243;49.814;8.652;2023-02-02T09:09:00;2.40;;;1.50;;
51179;SDS011;37243;49.814;8.652;2023-02-02T09:11:29;3.47;;;1.45;;
51179;SDS011;37243;49.814;8.652;2023-02-02T09:13:57;3.85;;;1.73;;
51179;SDS011;37243;49.814;8.652;2023-02-02T09:16:27;2.65;;;1.52;;
51179;SDS011;37243;49.814;8.652;2023-02-02T09:18:56;2.75;;;1.55;;
51179;SDS011;37243;49.814;8.652;2023-02-02T09:21:27;2.42;;;1.70;;
51179;SDS011;37243;49.814;8.652;2023-02-02T09:23:55;1.90;;;1.40;;
51179;SDS011;37243;49.814;8.652;2023-02-02T09:26:24;2.58;;;1.10;;
51179;SDS011;37243;49.814;8.652;2023-02-02T09:28:54;1.30;;;1.20;;
51179;SDS011;37243;49.814;8.652;2023-02-02T09:31:26;1.50;;;1.40;;
51179;SDS011;37243;49.814;8.652;2023-02-02T09:33:58;2.30;;;1.67;;
51179;SDS011;37243;49.814;8.652;2023-02-02T09:36:30;1.48;;;1.38;;
51179;SDS011;37243;49.814;8.652;2023-02-02T09:38:59;1.40;;;1.30;;
51179;SDS011;37243;49.814;8.652;2023-02-02T09:47:33;1.42;;;1.33;;
51179;SDS011;37243;49.814;8.652;2023-02-02T09:50:19;1.30;;;1.20;;
51179;SDS011;37243;49.814;8.652;2023-02-02T09:52:58;3.42;;;1.40;;
51179;SDS011;37243;49.814;8.652;2023-02-02T09:55:32;1.30;;;1.20;;
51179;SDS011;37243;49.814;8.652;2023-02-02T09:58:06;2.40;;;1.10;;
51179;SDS011;37243;49.814;8.652;2023-02-02T10:00:41;1.00;;;0.95;;
51179;SDS011;37243;49.814;8.652;2023-02-02T10:03:14;2.13;;;1.40;;
51179;SDS011;37243;49.814;8.652;2023-02-02T10:05:49;1.58;;;1.13;;
51179;SDS011;37243;49.814;8.652;2023-02-02T10:08:27;2.42;;;1.40;;
51179;SDS011;37243;49.814;8.652;2023-02-02T10:11:03;1.85;;;1.27;;
51179;SDS011;37243;49.814;8.652;2023-02-02T10:13:42;2.28;;;1.60;;
51179;SDS011;37243;49.814;8.652;2023-02-02T10:16:13;1.27;;;1.17;;
51179;SDS011;37243;49.814;8.652;2023-02-02T10:18:45;2.90;;;1.20;;
51179;SDS011;37243;49.814;8.652;2023-02-02T10:21:20;1.48;;;1.35;;
51179;SDS011;37243;49.814;8.652;2023-02-02T10:23:56;1.77;;;1.30;;
51179;SDS011;37243;49.814;8.652;2023-02-02T10:26:26;1.50;;;1.20;;
51179;SDS011;37243;49.814;8.652;2023-02-02T10:29:08;1.70;;;1.17;;
51179;SDS011;37243;49.814;8.652;2023-02-02T10:31:43;1.75;;;1.40;;
51179;SDS011;37243;49.814;8.652;2023-02-02T10:34:22;1.40;;;1.30;;
51179;SDS011;37243;49.814;8.652;2023-02-02T10:39:52;1.38;;;1.27;;
51179;SDS011;37243;49.814;8.652;2023-02-02T10:42:32;2.78;;;1.20;;
51179;SDS011;37243;49.814;8.652;2023-02-02T10:45:09;2.80;;;1.33;;
51179;SDS011;37243;49.814;8.652;2023-02-02T10:47:41;1.20;;;1.13;;
51179;SDS011;37243;49.814;8.652;2023-02-02T10:50:14;2.60;;;1.27;;
51179;SDS011;37243;49.814;8.652;2023-02-02T10:52:46;1.48;;;1.38;;
51179;SDS011;37243;49.814;8.652;2023-02-02T10:55:24;1.08;;;0.90;;
51179;SDS011;37243;49.814;8.652;2023-02-02T10:58:04;1.25;;;1.10;;
51179;SDS011;37243;49.814;8.652;2023-02-02T11:00:40;1.52;;;1.23;;
51179;SDS011;37243;49.814;8.652;2023-02-02T11:03:16;1.17;;;1.00;;
51179;SDS011;37243;49.814;8.652;2023-02-02T11:05:46;1.40;;;1.00;;
51179;SDS011;37243;49.814;8.652;2023-02-02T11:08:29;2.00;;;1.10;;
51179;SDS011;37243;49.814;8.652;2023-02-02T11:11:07;0.98;;;0.70;;
51179;SDS011;37243;49.814;8.652;2023-02-02T11:13:39;1.55;;;1.10;;
51179;SDS011;37243;49.814;8.652;2023-02-02T11:16:17;0.80;;;0.80;;
51179;SDS011;37243;49.814;8.652;2023-02-02T11:18:51;1.20;;;0.93;;
51179;SDS011;37243;49.814;8.652;2023-02-02T11:21:20;0.80;;;0.80;;
51179;SDS011;37243;49.814;8.652;2023-02-02T11:23:55;1.40;;;1.30;;
51179;SDS011;37243;49.814;8.652;2023-02-02T11:26:40;1.15;;;1.00;;
51179;SDS011;37243;49.814;8.652;2023-02-02T11:29:12;0.80;;;0.80;;
51179;SDS011;37243;49.814;8.652;2023-02-02T11:31:43;1.20;;;1.10;;
51179;SDS011;37243;49.814;8.652;2023-02-02T11:34:15;1.25;;;1.05;;
51179;SDS011;37243;49.814;8.652;2023-02-02T11:36:57;1.35;;;1.00;;
51179;SDS011;37243;49.814;8.652;2023-02-02T11:39:27;2.38;;;1.17;;
51179;SDS011;37243;49.814;8.652;2023-02-02T11:42:03;2.97;;;1.05;;
51179;SDS011;37243;49.814;8.652;2023-02-02T11:44:33;0.90;;;0.80;;
51179;SDS011;37243;49.814;8.652;2023-02-02T11:47:05;1.13;;;0.98;;
51179;SDS011;37243;49.814;8.652;2023-02-02T11:49:36;1.13;;;0.90;;
51179;SDS011;37243;49.814;8.652;2023-02-02T11:52:13;1.17;;;1.00;;
51179;SDS011;37243;49.814;8.652;2023-02-02T11:54:45;1.17;;;1.00;;
51179;SDS011;37243;49.814;8.652;2023-02-02T11:57:19;1.83;;;0.85;;
51179;SDS011;37243;49.814;8.652;2023-02-02T11:59:49;0.77;;;0.77;;
51179;SDS011;37243;49.814;8.652;2023-02-02T12:02:23;1.35;;;0.88;;
51179;SDS011;37243;49.814;8.652;2023-02-02T12:04:54;1.25;;;1.00;;
51179;SDS011;37243;49.814;8.652;2023-02-02T12:07:38;0.82;;;0.70;;
51179;SDS011;37243;49.814;8.652;2023-02-02T12:10:12;0.98;;;0.90;;
51179;SDS011;37243;49.814;8.652;2023-02-02T12:12:52;1.20;;;1.10;;
51179;SDS011;37243;49.814;8.652;2023-02-02T12:15:30;1.55;;;0.98;;
51179;SDS011;37243;49.814;8.652;2023-02-02T12:18:09;1.52;;;1.05;;
51179;SDS011;37243;49.814;8.652;2023-02-02T12:20:54;1.92;;;0.80;;
51179;SDS011;37243;49.814;8.652;2023-02-02T12:23:32;2.25;;;1.00;;
51179;SDS011;37243;49.814;8.652;2023-02-02T12:26:23;1.73;;;0.82;;
51179;SDS011;37243;49.814;8.652;2023-02-02T12:32:16;1.00;;;0.80;;
51179;SDS011;37243;49.814;8.652;2023-02-02T12:35:00;1.05;;;1.00;;
51179;SDS011;37243;49.814;8.652;2023-02-02T12:37:47;1.17;;;0.70;;
51179;SDS011;37243;49.814;8.652;2023-02-02T12:40:28;0.95;;;0.82;;
51179;SDS011;37243;49.814;8.652;2023-02-02T12:43:12;0.85;;;0.85;;
51179;SDS011;37243;49.814;8.652;2023-02-02T12:46:01;0.82;;;0.82;;
51179;SDS011;37243;49.814;8.652;2023-02-02T12:48:49;1.23;;;1.13;;
51179;SDS011;37243;49.814;8.652;2023-02-02T12:51:30;0.90;;;0.80;;
51179;SDS011;37243;49.814;8.652;2023-02-02T12:54:12;1.38;;;0.90;;
51179;SDS011;37243;49.814;8.652;2023-02-02T12:56:50;1.02;;;0.93;;
51179;SDS011;37243;49.814;8.652;2023-02-02T12:59:32;0.90;;;0.90;;
51179;SDS011;37243;49.814;8.652;2023-02-02T13:02:22;0.77;;;0.77;;
51179;SDS011;37243;49.814;8.652;2023-02-02T13:05:02;1.30;;;0.90;;
51179;SDS011;37243;49.814;8.652;2023-02-02T13:07:46;0.90;;;0.90;;
51179;SDS011;37243;49.814;8.652;2023-02-02T13:10:20;1.25;;;1.15;;
51179;SDS011;37243;49.814;8.652;2023-02-02T13:12:54;1.08;;;0.95;;
51179;SDS011;37243;49.814;8.652;2023-02-02T13:15:27;0.82;;;0.70;;
51179;SDS011;37243;49.814;8.652;2023-02-02T13:18:05;1.00;;;0.95;;
51179;SDS011;37243;49.814;8.652;2023-02-02T13:20:39;0.70;;;0.70;;
51179;SDS011;37243;49.814;8.652;2023-02-02T13:23:12;1.55;;;0.80;;
51179;SDS011;37243;49.814;8.652;2023-02-02T13:25:46;0.80;;;0.80;;
51179;SDS011;37243;49.814;8.652;2023-02-02T13:28:27;1.13;;;0.93;;
51179;SDS011;37243;49.814;8.652;2023-02-02T13:31:03;0.90;;;0.77;;
51179;SDS011;37243;49.814;8.652;2023-02-02T13:33:41;2.72;;;1.13;;
51179;SDS011;37243;49.814;8.652;2023-02-02T13:36:15;0.90;;;0.90;;
51179;SDS011;37243;49.814;8.652;2023-02-02T13:38:53;2.05;;;0.80;;
51179;SDS011;37243;49.814;8.652;2023-02-02T13:41:24;0.70;;;0.70;;
51179;SDS011;37243;49.814;8.652;2023-02-02T13:43:55;0.85;;;0.85;;
51179;SDS011;37243;49.814;8.652;2023-02-02T13:46:29;0.70;;;0.70;;
51179;SDS011;37243;49.814;8.652;2023-02-02T13:49:08;1.65;;;0.98;;
51179;SDS011;37243;49.814;8.652;2023-02-02T13:51:47;0.50;;;0.50;;
51179;SDS011;37243;49.814;8.652;2023-02-02T13:54:35;0.65;;;0.65;;
51179;SDS011;37243;49.814;8.652;2023-02-02T14:00:52;0.80;;;0.80;;
51179;SDS011;37243;49.814;8.652;2023-02-02T14:03:26;0.70;;;0.70;;
51179;SDS011;37243;49.814;8.652;2023-02-02T14:06:09;1.38;;;0.70;;
51179;SDS011;37243;49.814;8.652;2023-02-02T14:08:44;1.15;;;0.80;;
51179;SDS011;37243;49.814;8.652;2023-02-02T14:11:17;0.75;;;0.60;;
51179;SDS011;37243;49.814;8.652;2023-02-02T14:13:49;0.90;;;0.90;;
51179;SDS011;37243;49.814;8.652;2023-02-02T14:16:46;0.88;;;0.82;;
51179;SDS011;37243;49.814;8.652;2023-02-02T14:19:17;0.95;;;0.88;;
51179;SDS011;37243;49.814;8.652;2023-02-02T14:22:14;1.33;;;1.08;;
51179;SDS011;37243;49.814;8.652;2023-02-02T14:24:47;1.02;;;0.82;;
51179;SDS011;37243;49.814;8.652;2023-02-02T14:30:24;0.50;;;0.50;;
51179;SDS011;37243;49.814;8.652;2023-02-02T14:36:14;0.77;;;0.77;;
51179;SDS011;37243;49.814;8.652;2023-02-02T14:47:45;0.73;;;0.65;;
51179;SDS011;37243;49.814;8.652;2023-02-02T14:50:16;1.63;;;0.80;;
51179;SDS011;37243;49.814;8.652;2023-02-02T14:52:59;0.75;;;0.75;;
51179;SDS011;37243;49.814;8.652;2023-02-02T14:55:34;0.60;;;0.60;;
51179;SDS011;37243;49.814;8.652;2023-02-02T14:58:20;0.60;;;0.60;;
51179;SDS011;37243;49.814;8.652;2023-02-02T15:00:56;1.77;;;0.93;;
51179;SDS011;37243;49.814;8.652;2023-02-02T15:03:33;0.70;;;0.70;;
51179;SDS011;37243;49.814;8.652;2023-02-02T15:06:30;1.10;;;0.60;;
51179;SDS011;37243;49.814;8.652;2023-02-02T15:14:48;1.40;;;0.65;;
51179;SDS011;37243;49.814;8.652;2023-02-02T15:17:22;0.95;;;0.95;;
51179;SDS011;37243;49.814;8.652;2023-02-02T15:19:55;0.50;;;0.50;;
51179;SDS011;37243;49.814;8.652;2023-02-02T15:22:34;0.85;;;0.85;;
51179;SDS011;37243;49.814;8.652;2023-02-02T15:25:11;1.63;;;0.80;;
51179;SDS011;37243;49.814;8.652;2023-02-02T15:27:51;1.23;;;0.82;;
51179;SDS011;37243;49.814;8.652;2023-02-02T15:30:25;0.60;;;0.60;;
51179;SDS011;37243;49.814;8.652;2023-02-02T15:32:57;1.30;;;0.70;;
51179;SDS011;37243;49.814;8.652;2023-02-02T15:35:31;0.90;;;0.90;;
51179;SDS011;37243;49.814;8.652;2023-02-02T15:38:00;1.88;;;1.10;;
51179;SDS011;37243;49.814;8.652;2023-02-02T15:40:33;1.58;;;1.10;;
51179;SDS011;37243;49.814;8.652;2023-02-02T15:43:06;2.45;;;1.10;;
51179;SDS011;37243;49.814;8.652;2023-02-02T15:45:39;1.45;;;1.00;;
51179;SDS011;37243;49.814;8.652;2023-02-02T15:48:22;1.13;;;0.88;;
51179;SDS011;37243;49.814;8.652;2023-02-02T15:50:54;1.65;;;1.40;;
51179;SDS011;37243;49.814;8.652;2023-02-02T15:53:25;1.55;;;1.17;;
51179;SDS011;37243;49.814;8.652;2023-02-02T15:55:55;2.28;;;1.10;;
51179;SDS011;37243;49.814;8.652;2023-02-02T15:58:31;2.13;;;0.90;;
51179;SDS011;37243;49.814;8.652;2023-02-02T16:01:02;1.45;;;0.70;;
51179;SDS011;37243;49.814;8.652;2023-02-02T16:03:33;1.60;;;0.80;;